createdAt,value
2023-04-03T00:00:41.703Z,935.00
2023-04-03T00:01:41.746Z,941.00
2023-04-03T00:02:41.880Z,925.00
2023-04-03T00:03:41.681Z,930.00
2023-04-03T00:04:41.841Z,933.00
2023-04-03T00:05:41.640Z,938.00
2023-04-03T00:06:41.603Z,947.00
2023-04-03T00:07:41.621Z,935.00
2023-04-03T00:08:41.581Z,955.00
2023-04-03T00:09:41.550Z,951.00
2023-04-03T00:10:41.547Z,962.00
2023-04-03T00:11:41.529Z,951.00
2023-04-03T00:12:41.510Z,947.00
2023-04-03T00:13:41.494Z,933.00
2023-04-03T00:14:41.487Z,932.00
2023-04-03T00:15:41.457Z,949.00
2023-04-03T00:16:41.470Z,942.00
2023-04-03T00:17:41.462Z,945.00
2023-04-03T00:18:41.433Z,948.00
2023-04-03T00:19:41.395Z,966.00
2023-04-03T00:20:41.388Z,958.00
2023-04-03T00:21:41.365Z,948.00
2023-04-03T00:22:41.366Z,953.00
2023-04-03T00:23:41.370Z,953.00
2023-04-03T00:24:41.328Z,955.00
2023-04-03T00:25:41.298Z,958.00
2023-04-03T00:26:41.298Z,956.00
2023-04-03T00:27:41.283Z,953.00
2023-04-03T00:28:41.269Z,954.00
2023-04-03T00:29:41.266Z,948.00
2023-04-03T00:30:41.243Z,948.00
2023-04-03T00:31:41.210Z,959.00
2023-04-03T00:32:41.209Z,966.00
2023-04-03T00:33:41.184Z,951.00
2023-04-03T00:34:41.169Z,967.00
2023-04-03T00:35:41.259Z,955.00
2023-04-03T00:36:41.290Z,976.00
2023-04-03T00:37:41.126Z,974.00
2023-04-03T00:38:41.131Z,970.00
2023-04-03T00:39:41.103Z,984.00
2023-04-03T00:40:41.089Z,987.00
2023-04-03T00:41:41.086Z,985.00
2023-04-03T00:42:41.060Z,975.00
2023-04-03T00:43:41.077Z,979.00
2023-04-03T00:44:41.030Z,992.00
2023-04-03T00:45:41.022Z,992.00
2023-04-03T00:46:41.026Z,980.00
2023-04-03T00:47:41.039Z,991.00
2023-04-03T00:48:41.037Z,988.00
2023-04-03T00:49:41.061Z,992.00
2023-04-03T00:50:41.062Z,993.00
2023-04-03T00:51:41.086Z,1010.00
2023-04-03T00:52:41.098Z,1009.00
2023-04-03T00:53:41.088Z,1018.00
2023-04-03T00:54:41.100Z,1014.00
2023-04-03T00:55:41.106Z,1020.00
2023-04-03T00:56:41.116Z,1022.00
2023-04-03T00:57:41.128Z,1013.00
2023-04-03T00:58:41.134Z,1011.00
2023-04-03T00:59:41.124Z,991.00
2023-04-03T01:00:41.126Z,998.00
2023-04-03T01:01:41.241Z,1013.00
2023-04-03T01:02:41.173Z,1015.00
2023-04-03T01:03:41.163Z,1016.00
2023-04-03T01:04:41.206Z,1024.00
2023-04-03T01:05:41.166Z,1018.00
2023-04-03T01:06:41.180Z,1016.00
2023-04-03T01:07:41.193Z,1029.00
2023-04-03T01:08:41.172Z,1029.00
2023-04-03T01:09:41.210Z,1031.00
2023-04-03T01:10:41.134Z,1033.00
2023-04-03T01:11:41.116Z,1039.00
2023-04-03T01:12:41.100Z,1033.00
2023-04-03T01:13:42.092Z,1030.00
2023-04-03T01:14:41.082Z,1030.00
2023-04-03T01:15:41.045Z,1034.00
2023-04-03T01:16:41.008Z,1036.00
2023-04-03T01:17:41.030Z,1045.00
2023-04-03T01:18:40.955Z,1048.00
2023-04-03T01:19:40.924Z,1034.00
2023-04-03T01:20:40.917Z,1020.00
2023-04-03T01:21:40.896Z,1015.00
2023-04-03T01:22:40.862Z,1023.00
2023-04-03T01:23:40.843Z,1028.00
2023-04-03T01:24:40.819Z,1040.00
2023-04-03T01:25:40.791Z,1035.00
2023-04-03T01:26:40.767Z,1030.00
2023-04-03T01:27:40.746Z,1035.00
2023-04-03T01:28:40.747Z,1018.00
2023-04-03T01:29:40.747Z,1009.00
2023-04-03T01:30:40.763Z,1007.00
2023-04-03T01:31:40.818Z,1015.00
2023-04-03T01:32:40.792Z,1011.00
2023-04-03T01:33:40.803Z,1023.00
2023-04-03T01:34:40.819Z,1038.00
2023-04-03T01:35:40.828Z,1012.00
2023-04-03T01:36:40.841Z,1014.00
2023-04-03T01:37:40.842Z,1029.00
2023-04-03T01:38:40.823Z,1001.00
2023-04-03T01:39:40.828Z,1010.00
2023-04-03T01:40:40.797Z,1024.00
2023-04-03T01:41:40.789Z,1033.00
2023-04-03T01:42:40.750Z,1061.00
2023-04-03T01:43:40.735Z,1079.00
2023-04-03T01:44:40.763Z,1108.00
2023-04-03T01:45:40.704Z,1114.00
2023-04-03T01:46:40.689Z,1133.00
2023-04-03T01:47:40.724Z,1147.00
2023-04-03T01:48:40.637Z,1156.00
2023-04-03T01:49:40.623Z,1175.00
2023-04-03T01:50:40.594Z,1160.00
2023-04-03T01:51:40.576Z,1187.00
2023-04-03T01:52:40.548Z,1202.00
2023-04-03T01:53:40.535Z,1217.00
2023-04-03T01:54:40.511Z,1216.00
2023-04-03T01:55:40.494Z,1234.00
2023-04-03T01:56:40.530Z,1264.00
2023-04-03T01:57:40.524Z,1256.00
2023-04-03T01:58:40.589Z,1270.00
2023-04-03T01:59:40.552Z,1280.00
2023-04-03T02:00:40.568Z,1297.00
2023-04-03T02:01:40.643Z,1291.00
2023-04-03T02:02:40.665Z,1321.00
2023-04-03T02:03:40.627Z,1327.00
2023-04-03T02:04:40.616Z,1361.00
2023-04-03T02:05:40.655Z,1374.00
2023-04-03T02:06:40.722Z,1396.00
2023-04-03T02:07:40.742Z,1415.00
2023-04-03T02:08:40.789Z,1422.00
2023-04-03T02:09:40.923Z,1438.00
2023-04-03T02:10:40.815Z,1443.00
2023-04-03T02:11:40.844Z,1469.00
2023-04-03T02:12:40.868Z,1480.00
2023-04-03T02:13:40.859Z,1484.00
2023-04-03T02:14:40.869Z,1488.00
2023-04-03T02:15:40.898Z,1510.00
2023-04-03T02:16:40.965Z,1511.00
2023-04-03T02:17:40.932Z,1518.00
2023-04-03T02:18:40.911Z,1534.00
2023-04-03T02:19:40.912Z,1529.00
2023-04-03T02:20:40.931Z,1524.00
2023-04-03T02:21:40.942Z,1536.00
2023-04-03T02:22:40.944Z,1553.00
2023-04-03T02:23:40.952Z,1542.00
2023-04-03T02:24:40.983Z,1547.00
2023-04-03T02:25:40.988Z,1558.00
2023-04-03T02:26:40.987Z,1547.00
2023-04-03T02:27:41.011Z,1561.00
2023-04-03T02:28:41.015Z,1572.00
2023-04-03T02:29:41.029Z,1572.00
2023-04-03T02:30:41.066Z,1593.00
2023-04-03T02:31:41.067Z,1601.00
2023-04-03T02:32:41.115Z,1616.00
2023-04-03T02:33:41.100Z,1606.00
2023-04-03T02:34:41.107Z,1585.00
2023-04-03T02:35:41.191Z,1599.00
2023-04-03T02:36:41.140Z,1598.00
2023-04-03T02:37:41.168Z,1620.00
2023-04-03T02:38:41.180Z,1617.00
2023-04-03T02:39:41.213Z,1624.00
2023-04-03T02:40:41.211Z,1631.00
2023-04-03T02:41:41.210Z,1628.00
2023-04-03T02:42:41.225Z,1637.00
2023-04-03T02:43:41.245Z,1637.00
2023-04-03T02:44:41.257Z,1624.00
2023-04-03T02:45:41.269Z,1582.00
2023-04-03T02:46:41.285Z,1545.00
2023-04-03T02:47:41.337Z,1509.00
2023-04-03T02:48:41.334Z,1497.00
2023-04-03T02:49:41.342Z,1461.00
2023-04-03T02:50:41.372Z,1439.00
2023-04-03T02:51:41.363Z,1426.00
2023-04-03T02:52:41.348Z,1406.00
2023-04-03T02:53:41.376Z,1411.00
2023-04-03T02:54:41.441Z,1411.00
2023-04-03T02:55:41.411Z,1395.00
2023-04-03T02:56:41.476Z,1371.00
2023-04-03T02:57:41.458Z,1361.00
2023-04-03T02:58:41.457Z,1340.00
2023-04-03T02:59:41.502Z,1318.00
2023-04-03T03:00:41.499Z,1326.00
2023-04-03T03:01:41.534Z,1320.00
2023-04-03T03:02:41.591Z,1303.00
2023-04-03T03:03:41.561Z,1279.00
2023-04-03T03:04:41.651Z,1268.00
2023-04-03T03:05:41.640Z,1267.00
2023-04-03T03:06:42.920Z,1231.00
2023-04-03T03:07:41.596Z,1232.00
2023-04-03T03:08:41.567Z,1235.00
2023-04-03T03:09:41.549Z,1233.00
2023-04-03T03:10:41.565Z,1232.00
2023-04-03T03:11:41.505Z,1218.00
2023-04-03T03:12:41.496Z,1231.00
2023-04-03T03:13:41.469Z,1228.00
2023-04-03T03:14:41.442Z,1227.00
2023-04-03T03:15:41.436Z,1199.00
2023-04-03T03:16:41.403Z,1202.00
2023-04-03T03:17:41.439Z,1178.00
2023-04-03T03:18:41.356Z,1180.00
2023-04-03T03:19:41.350Z,1150.00
2023-04-03T03:20:41.316Z,1148.00
2023-04-03T03:21:41.279Z,1140.00
2023-04-03T03:22:41.259Z,1143.00
2023-04-03T03:23:41.264Z,1126.00
2023-04-03T03:24:41.278Z,1113.00
2023-04-03T03:25:41.341Z,1104.00
2023-04-03T03:26:41.310Z,1111.00
2023-04-03T03:27:41.335Z,1101.00
2023-04-03T03:28:41.348Z,1085.00
2023-04-03T03:29:41.381Z,1079.00
2023-04-03T03:30:41.412Z,1097.00
2023-04-03T03:31:41.472Z,1074.00
2023-04-03T03:32:41.489Z,1081.00
2023-04-03T03:33:41.440Z,1093.00
2023-04-03T03:34:41.444Z,1116.00
2023-04-03T03:35:41.506Z,1106.00
2023-04-03T03:36:41.505Z,1140.00
2023-04-03T03:37:41.517Z,1160.00
2023-04-03T03:38:41.519Z,1153.00
2023-04-03T03:39:41.519Z,1162.00
2023-04-03T03:40:41.492Z,1184.00
2023-04-03T03:41:41.520Z,1179.00
2023-04-03T03:42:41.533Z,1178.00
2023-04-03T03:43:41.554Z,1186.00
2023-04-03T03:44:41.669Z,1207.00
2023-04-03T03:45:41.594Z,1215.00
2023-04-03T03:46:41.641Z,1216.00
2023-04-03T03:47:41.650Z,1238.00
2023-04-03T03:48:41.626Z,1243.00
2023-04-03T03:49:41.655Z,1267.00
2023-04-03T03:50:41.669Z,1265.00
2023-04-03T03:51:41.680Z,1261.00
2023-04-03T03:52:41.711Z,1281.00
2023-04-03T03:53:41.725Z,1279.00
2023-04-03T03:54:41.748Z,1305.00
2023-04-03T03:55:41.776Z,1319.00
2023-04-03T03:56:41.795Z,1321.00
2023-04-03T03:57:41.809Z,1346.00
2023-04-03T03:58:41.817Z,1335.00
2023-04-03T03:59:41.831Z,1324.00
2023-04-03T04:00:41.865Z,1336.00
2023-04-03T04:01:41.933Z,1336.00
2023-04-03T04:02:41.986Z,1329.00
2023-04-03T04:03:41.958Z,1353.00
2023-04-03T04:04:41.904Z,1362.00
2023-04-03T04:05:41.943Z,1364.00
2023-04-03T04:06:41.948Z,1362.00
2023-04-03T04:07:41.955Z,1372.00
2023-04-03T04:08:41.984Z,1396.00
2023-04-03T04:09:41.992Z,1420.00
2023-04-03T04:10:42.020Z,1418.00
2023-04-03T04:11:42.029Z,1422.00
2023-04-03T04:12:42.041Z,1425.00
2023-04-03T04:13:42.064Z,1433.00
2023-04-03T04:14:42.079Z,1440.00
2023-04-03T04:15:42.120Z,1463.00
2023-04-03T04:16:42.157Z,1465.00
2023-04-03T04:17:42.175Z,1495.00
2023-04-03T04:18:42.103Z,1495.00
2023-04-03T04:19:42.072Z,1499.00
2023-04-03T04:20:42.065Z,1508.00
2023-04-03T04:21:42.045Z,1517.00
2023-04-03T04:22:42.009Z,1533.00
2023-04-03T04:23:41.992Z,1544.00
2023-04-03T04:24:41.982Z,1551.00
2023-04-03T04:25:41.957Z,1561.00
2023-04-03T04:26:41.957Z,1561.00
2023-04-03T04:27:41.924Z,1565.00
2023-04-03T04:28:41.898Z,1564.00
2023-04-03T04:29:41.892Z,1559.00
2023-04-03T04:30:41.883Z,1566.00
2023-04-03T04:31:41.855Z,1569.00
2023-04-03T04:32:41.866Z,1581.00
2023-04-03T04:33:41.835Z,1596.00
2023-04-03T04:34:41.831Z,1595.00
2023-04-03T04:35:42.149Z,1578.00
2023-04-03T04:36:42.052Z,1546.00
2023-04-03T04:37:41.880Z,1518.00
2023-04-03T04:38:41.878Z,1497.00
2023-04-03T04:39:41.912Z,1483.00
2023-04-03T04:40:41.915Z,1481.00
2023-04-03T04:41:41.945Z,1460.00
2023-04-03T04:42:41.942Z,1425.00
2023-04-03T04:43:41.993Z,1397.00
2023-04-03T04:44:41.990Z,1374.00
2023-04-03T04:45:42.016Z,1372.00
2023-04-03T04:46:42.061Z,1370.00
2023-04-03T04:47:42.105Z,1334.00
2023-04-03T04:48:42.062Z,1350.00
2023-04-03T04:49:42.071Z,1315.00
2023-04-03T04:50:42.102Z,1294.00
2023-04-03T04:52:42.332Z,1270.00
2023-04-03T04:53:42.323Z,1257.00
2023-04-03T04:54:42.336Z,1232.00
2023-04-03T04:55:42.342Z,1211.00
2023-04-03T04:56:42.363Z,1204.00
2023-04-03T04:57:42.436Z,1194.00
2023-04-03T04:58:42.390Z,1172.00
2023-04-03T04:59:42.407Z,1137.00
2023-04-03T05:00:42.412Z,1139.00
2023-04-03T05:01:42.441Z,1132.00
2023-04-03T05:02:42.503Z,1125.00
2023-04-03T05:03:42.468Z,1103.00
2023-04-03T05:04:42.502Z,1104.00
2023-04-03T05:05:42.513Z,1103.00
2023-04-03T05:06:42.497Z,1091.00
2023-04-03T05:07:42.510Z,1073.00
2023-04-03T05:08:42.552Z,1073.00
2023-04-03T05:09:42.562Z,1064.00
2023-04-03T05:10:42.576Z,1050.00
2023-04-03T05:11:42.594Z,1051.00
2023-04-03T05:12:42.599Z,1054.00
2023-04-03T05:13:42.609Z,1079.00
2023-04-03T05:14:42.659Z,1097.00
2023-04-03T05:15:42.690Z,1102.00
2023-04-03T05:16:42.713Z,1103.00
2023-04-03T05:17:42.696Z,1117.00
2023-04-03T05:18:42.696Z,1139.00
2023-04-03T05:19:42.735Z,1132.00
2023-04-03T05:20:42.747Z,1123.00
2023-04-03T05:21:42.794Z,1132.00
2023-04-03T05:22:42.826Z,1140.00
2023-04-03T05:23:42.858Z,1153.00
2023-04-03T05:24:42.870Z,1161.00
2023-04-03T05:25:42.871Z,1163.00
2023-04-03T05:26:42.869Z,1173.00
2023-04-03T05:27:42.900Z,1184.00
2023-04-03T05:28:42.902Z,1184.00
2023-04-03T05:29:43.921Z,1194.00
2023-04-03T05:30:42.927Z,1192.00
2023-04-03T05:31:42.978Z,1210.00
2023-04-03T05:32:43.028Z,1219.00
2023-04-03T05:33:42.987Z,1220.00
2023-04-03T05:34:42.986Z,1251.00
2023-04-03T05:35:43.039Z,1270.00
2023-04-03T05:36:43.024Z,1273.00
2023-04-03T05:37:43.039Z,1270.00
2023-04-03T05:38:43.058Z,1291.00
2023-04-03T05:39:43.093Z,1305.00
2023-04-03T05:40:43.090Z,1312.00
2023-04-03T05:41:43.111Z,1313.00
2023-04-03T05:42:43.073Z,1314.00
2023-04-03T05:43:43.056Z,1317.00
2023-04-03T05:44:43.022Z,1325.00
2023-04-03T05:45:44.768Z,1353.00
2023-04-03T05:46:42.992Z,1385.00
2023-04-03T05:47:43.076Z,1380.00
2023-04-03T05:48:42.951Z,1381.00
2023-04-03T05:49:42.920Z,1364.00
2023-04-03T05:50:42.892Z,1392.00
2023-04-03T05:51:42.904Z,1393.00
2023-04-03T05:52:42.880Z,1398.00
2023-04-03T05:53:42.852Z,1406.00
2023-04-03T05:54:42.818Z,1419.00
2023-04-03T05:55:42.797Z,1440.00
2023-04-03T05:56:42.834Z,1458.00
2023-04-03T05:57:42.752Z,1458.00
2023-04-03T05:58:42.761Z,1455.00
2023-04-03T05:59:42.762Z,1448.00
2023-04-03T06:00:42.732Z,1457.00
2023-04-03T06:01:42.693Z,1473.00
2023-04-03T06:02:42.743Z,1459.00
2023-04-03T06:03:42.798Z,1473.00
2023-04-03T06:04:42.795Z,1457.00
2023-04-03T06:05:42.665Z,1476.00
2023-04-03T06:06:42.589Z,1482.00
2023-04-03T06:07:42.600Z,1484.00
2023-04-03T06:08:42.606Z,1495.00
2023-04-03T06:09:42.635Z,1501.00
2023-04-03T06:10:42.665Z,1501.00
2023-04-03T06:11:42.664Z,1510.00
2023-04-03T06:12:42.682Z,1513.00
2023-04-03T06:13:42.670Z,1509.00
2023-04-03T06:14:42.684Z,1518.00
2023-04-03T06:15:42.720Z,1523.00
2023-04-03T06:16:42.769Z,1528.00
2023-04-03T06:17:42.769Z,1506.00
2023-04-03T06:18:42.725Z,1483.00
2023-04-03T06:19:42.756Z,1457.00
2023-04-03T06:20:42.761Z,1429.00
2023-04-03T06:21:42.773Z,1417.00
2023-04-03T06:22:42.831Z,1403.00
2023-04-03T06:23:42.796Z,1356.00
2023-04-03T06:24:42.854Z,1342.00
2023-04-03T06:25:42.826Z,1322.00
2023-04-03T06:26:42.832Z,1327.00
2023-04-03T06:27:42.933Z,1310.00
2023-04-03T06:28:42.968Z,1300.00
2023-04-03T06:29:42.882Z,1264.00
2023-04-03T06:30:42.932Z,1278.00
2023-04-03T06:31:42.960Z,1258.00
2023-04-03T06:32:43.077Z,1248.00
2023-04-03T06:33:42.952Z,1249.00
2023-04-03T06:34:42.985Z,1231.00
2023-04-03T06:35:43.047Z,1205.00
2023-04-03T06:36:43.621Z,1195.00
2023-04-03T06:37:43.017Z,1197.00
2023-04-03T06:38:43.016Z,1174.00
2023-04-03T06:39:43.045Z,1160.00
2023-04-03T06:40:43.171Z,1142.00
2023-04-03T06:41:43.094Z,1121.00
2023-04-03T06:42:43.253Z,1125.00
2023-04-03T06:43:43.148Z,1115.00
2023-04-03T06:44:43.193Z,1104.00
2023-04-03T06:45:43.236Z,1112.00
2023-04-03T06:46:43.390Z,1101.00
2023-04-03T06:47:43.343Z,1076.00
2023-04-03T06:48:43.319Z,1085.00
2023-04-03T06:49:43.344Z,1074.00
2023-04-03T06:50:43.354Z,1057.00
2023-04-03T06:51:43.377Z,1043.00
2023-04-03T06:52:43.383Z,1038.00
2023-04-03T06:53:43.380Z,1045.00
2023-04-03T06:54:43.414Z,1031.00
2023-04-03T06:55:43.415Z,1029.00
2023-04-03T06:56:43.438Z,1011.00
2023-04-03T06:57:43.429Z,1013.00
2023-04-03T06:58:43.458Z,1010.00
2023-04-03T06:59:43.468Z,1014.00
2023-04-03T07:00:43.459Z,1004.00
2023-04-03T07:01:43.516Z,992.00
2023-04-03T07:02:43.515Z,997.00
2023-04-03T07:03:43.518Z,993.00
2023-04-03T07:04:43.563Z,960.00
2023-04-03T07:05:43.547Z,969.00
2023-04-03T07:06:43.561Z,974.00
2023-04-03T07:07:43.629Z,962.00
2023-04-03T07:08:43.602Z,952.00
2023-04-03T07:09:45.241Z,954.00
2023-04-03T07:10:43.718Z,938.00
2023-04-03T07:11:43.662Z,938.00
2023-04-03T07:12:43.660Z,924.00
2023-04-03T07:13:43.657Z,915.00
2023-04-03T07:14:43.685Z,937.00
2023-04-03T07:15:43.738Z,931.00
2023-04-03T07:16:43.756Z,943.00
2023-04-03T07:17:43.700Z,969.00
2023-04-03T07:18:43.777Z,975.00
2023-04-03T07:19:43.844Z,983.00
2023-04-03T07:20:43.827Z,1000.00
2023-04-03T07:21:44.044Z,1017.00
2023-04-03T07:22:43.882Z,1028.00
2023-04-03T07:23:43.848Z,1016.00
2023-04-03T07:24:44.015Z,1039.00
2023-04-03T07:25:43.793Z,1042.00
2023-04-03T07:26:44.079Z,1060.00
2023-04-03T07:27:43.822Z,1083.00
2023-04-03T07:28:43.798Z,1078.00
2023-04-03T07:29:43.782Z,1094.00
2023-04-03T07:30:43.888Z,1111.00
2023-04-03T07:31:43.892Z,1133.00
2023-04-03T07:32:44.059Z,1141.00
2023-04-03T07:33:43.820Z,1148.00
2023-04-03T07:34:43.882Z,1168.00
2023-04-03T07:35:43.887Z,1161.00
2023-04-03T07:36:43.839Z,1172.00
2023-04-03T07:37:43.865Z,1151.00
2023-04-03T07:38:43.884Z,1179.00
2023-04-03T07:39:43.943Z,1186.00
2023-04-03T07:40:43.932Z,1183.00
2023-04-03T07:41:43.873Z,1182.00
2023-04-03T07:42:44.153Z,1207.00
2023-04-03T07:43:44.022Z,1196.00
2023-04-03T07:44:43.922Z,1208.00
2023-04-03T07:45:43.985Z,1219.00
2023-04-03T07:46:43.897Z,1220.00
2023-04-03T07:47:43.969Z,1225.00
2023-04-03T07:48:43.865Z,1230.00
2023-04-03T07:49:43.859Z,1234.00
2023-04-03T07:50:43.829Z,1238.00
2023-04-03T07:51:43.816Z,1221.00
2023-04-03T07:52:43.877Z,1224.00
2023-04-03T07:53:43.860Z,1235.00
2023-04-03T07:54:43.763Z,1254.00
2023-04-03T07:55:43.716Z,1265.00
2023-04-03T07:56:43.699Z,1273.00
2023-04-03T07:57:43.672Z,1270.00
2023-04-03T07:58:43.632Z,1278.00
2023-04-03T07:59:43.607Z,1272.00
2023-04-03T08:00:43.659Z,1272.00
2023-04-03T08:01:43.572Z,1273.00
2023-04-03T08:02:43.610Z,1261.00
2023-04-03T08:03:43.671Z,1276.00
2023-04-03T08:04:43.577Z,1282.00
2023-04-03T08:05:43.491Z,1297.00
2023-04-03T08:06:46.882Z,1301.00
2023-04-03T08:07:43.436Z,1301.00
2023-04-03T08:08:43.417Z,1301.00
2023-04-03T08:09:43.381Z,1293.00
2023-04-03T08:10:43.414Z,1309.00
2023-04-03T08:11:43.378Z,1309.00
2023-04-03T08:12:43.348Z,1292.00
2023-04-03T08:13:43.328Z,1297.00
2023-04-03T08:14:43.295Z,1281.00
2023-04-03T08:15:43.314Z,1281.00
2023-04-03T08:16:43.429Z,1254.00
2023-04-03T08:17:43.291Z,1239.00
2023-04-03T08:18:43.222Z,1232.00
2023-04-03T08:19:43.199Z,1201.00
2023-04-03T08:20:43.188Z,1185.00
2023-04-03T08:21:43.173Z,1167.00
2023-04-03T08:22:43.156Z,1155.00
2023-04-03T08:23:43.127Z,1143.00
2023-04-03T08:24:52.378Z,1139.00
2023-04-03T08:25:44.123Z,1138.00
2023-04-03T08:26:43.025Z,1109.00
2023-04-03T08:27:43.000Z,1099.00
2023-04-03T08:28:43.006Z,1068.00
2023-04-03T08:29:42.954Z,1053.00
2023-04-03T08:30:42.970Z,1047.00
2023-04-03T08:31:42.900Z,1033.00
2023-04-03T08:32:42.956Z,1015.00
2023-04-03T08:33:42.855Z,980.00
2023-04-03T08:34:42.865Z,966.00
2023-04-03T08:35:43.021Z,961.00
2023-04-03T08:36:42.797Z,966.00
2023-04-03T08:37:42.744Z,922.00
2023-04-03T08:38:42.738Z,896.00
2023-04-03T08:39:42.699Z,875.00
2023-04-03T08:40:42.682Z,880.00
2023-04-03T08:41:42.679Z,887.00
2023-04-03T08:42:42.895Z,882.00
2023-04-03T08:43:42.618Z,885.00
2023-04-03T08:44:42.601Z,892.00
2023-04-03T08:45:42.577Z,912.00
2023-04-03T08:46:42.601Z,929.00
2023-04-03T08:47:42.529Z,926.00
2023-04-03T08:48:42.602Z,932.00
2023-04-03T08:49:42.494Z,962.00
2023-04-03T08:50:42.462Z,963.00
2023-04-03T08:51:42.434Z,966.00
2023-04-03T08:52:42.426Z,969.00
2023-04-03T08:53:42.456Z,979.00
2023-04-03T08:54:42.361Z,1017.00
2023-04-03T08:55:42.349Z,1027.00
2023-04-03T08:56:42.333Z,1032.00
2023-04-03T08:57:42.326Z,1051.00
2023-04-03T08:58:42.306Z,1061.00
2023-04-03T08:59:43.179Z,1075.00
2023-04-03T09:00:42.243Z,1072.00
2023-04-03T09:01:42.272Z,1097.00
2023-04-03T09:02:42.220Z,1112.00
2023-04-03T09:03:42.217Z,1117.00
2023-04-03T09:04:42.244Z,1148.00
2023-04-03T09:05:42.132Z,1166.00
2023-04-03T09:06:42.125Z,1178.00
2023-04-03T09:07:42.091Z,1192.00
2023-04-03T09:08:42.051Z,1207.00
2023-04-03T09:09:42.086Z,1213.00
2023-04-03T09:10:42.004Z,1220.00
2023-04-03T09:11:42.017Z,1240.00
2023-04-03T09:12:41.940Z,1249.00
2023-04-03T09:13:42.177Z,1250.00
2023-04-03T09:14:41.932Z,1269.00
2023-04-03T09:15:41.975Z,1284.00
2023-04-03T09:16:41.973Z,1287.00
2023-04-03T09:17:41.961Z,1294.00
2023-04-03T09:18:41.969Z,1295.00
2023-04-03T09:19:41.959Z,1301.00
2023-04-03T09:20:42.029Z,1318.00
2023-04-03T09:21:41.948Z,1327.00
2023-04-03T09:22:46.207Z,1327.00
2023-04-03T09:23:42.913Z,1328.00
2023-04-03T09:24:41.906Z,1328.00
2023-04-03T09:25:41.923Z,1323.00
2023-04-03T09:26:41.847Z,1298.00
2023-04-03T09:27:41.908Z,1263.00
2023-04-03T09:28:49.429Z,1264.00
2023-04-03T09:29:41.773Z,1250.00
2023-04-03T09:30:41.735Z,1208.00
2023-04-03T09:31:42.402Z,1195.00
2023-04-03T09:32:41.955Z,1191.00
2023-04-03T09:33:41.641Z,1125.00
2023-04-03T09:34:41.624Z,1131.00
2023-04-03T09:35:48.237Z,1116.00
2023-04-03T09:36:41.653Z,1110.00
2023-04-03T09:37:41.536Z,1100.00
2023-04-03T09:38:41.509Z,1108.00
2023-04-03T09:39:41.502Z,1094.00
2023-04-03T09:40:41.453Z,1110.00
2023-04-03T09:41:41.443Z,1117.00
2023-04-03T09:42:44.057Z,1103.00
2023-04-03T09:43:41.448Z,1107.00
2023-04-03T09:44:41.389Z,1097.00
2023-04-03T09:45:41.336Z,1104.00
2023-04-03T09:46:41.342Z,1094.00
2023-04-03T09:47:41.338Z,1093.00
2023-04-03T09:48:41.273Z,1095.00
2023-04-03T09:49:41.256Z,1088.00
2023-04-03T09:50:41.210Z,1051.00
2023-04-03T09:51:41.194Z,1065.00
2023-04-03T09:52:41.265Z,1042.00
2023-04-03T09:53:41.149Z,1013.00
2023-04-03T09:54:41.159Z,1003.00
2023-04-03T09:55:41.087Z,1005.00
2023-04-03T09:56:41.082Z,993.00
2023-04-03T09:57:41.058Z,983.00
2023-04-03T09:58:49.523Z,999.00
2023-04-03T09:59:41.017Z,994.00
2023-04-03T10:00:41.340Z,945.00
2023-04-03T10:01:40.931Z,940.00
2023-04-03T10:02:40.993Z,942.00
2023-04-03T10:03:40.882Z,962.00
2023-04-03T10:04:40.924Z,951.00
2023-04-03T10:05:40.822Z,913.00
2023-04-03T10:06:40.788Z,896.00
2023-04-03T10:07:44.391Z,864.00
2023-04-03T10:08:41.836Z,852.00
2023-04-03T10:09:40.716Z,841.00
2023-04-03T10:10:40.848Z,830.00
2023-04-03T10:11:40.625Z,828.00
2023-04-03T10:12:40.592Z,813.00
2023-04-03T10:13:48.977Z,788.00
2023-04-03T10:14:41.532Z,788.00
2023-04-03T10:15:40.534Z,788.00
2023-04-03T10:16:40.597Z,767.00
2023-04-03T10:17:40.440Z,759.00
2023-04-03T10:18:40.409Z,748.00
2023-04-03T10:19:40.368Z,733.00
2023-04-03T10:20:40.545Z,748.00
2023-04-03T10:21:40.296Z,699.00
2023-04-03T10:22:40.237Z,703.00
2023-04-03T10:23:40.245Z,690.00
2023-04-03T10:24:40.292Z,690.00
2023-04-03T10:25:40.179Z,687.00
2023-04-03T10:26:40.164Z,693.00
2023-04-03T10:27:40.110Z,661.00
2023-04-03T10:28:40.072Z,654.00
2023-04-03T10:29:40.113Z,653.00
2023-04-03T10:30:40.484Z,650.00
2023-04-03T10:31:39.971Z,648.00
2023-04-03T10:32:40.353Z,648.00
2023-04-03T10:33:39.909Z,647.00
2023-04-03T10:34:39.965Z,654.00
2023-04-03T10:35:39.892Z,660.00
2023-04-03T10:36:39.821Z,659.00
2023-04-03T10:37:39.803Z,674.00
2023-04-03T10:38:39.842Z,702.00
2023-04-03T10:39:39.790Z,711.00
2023-04-03T10:40:40.185Z,710.00
2023-04-03T10:41:39.756Z,704.00
2023-04-03T10:42:39.742Z,686.00
2023-04-03T10:43:39.729Z,708.00
2023-04-03T10:44:39.728Z,715.00
2023-04-03T10:45:39.727Z,680.00
2023-04-03T10:46:39.677Z,706.00
2023-04-03T10:47:39.792Z,710.00
2023-04-03T10:48:39.658Z,692.00
2023-04-03T10:49:42.487Z,712.00
2023-04-03T10:50:39.882Z,712.00
2023-04-03T10:51:39.556Z,667.00
2023-04-03T10:52:41.212Z,686.00
2023-04-03T10:53:39.539Z,667.00
2023-04-03T10:54:39.466Z,658.00
2023-04-03T10:55:39.453Z,643.00
2023-04-03T10:56:39.555Z,644.00
2023-04-03T10:57:39.446Z,661.00
2023-04-03T10:58:39.367Z,659.00
2023-04-03T10:59:39.375Z,653.00
2023-04-03T11:00:39.706Z,637.00
2023-04-03T11:01:39.355Z,630.00
2023-04-03T11:02:39.305Z,633.00
2023-04-03T11:03:39.272Z,628.00
2023-04-03T11:04:39.172Z,611.00
2023-04-03T11:05:39.386Z,609.00
2023-04-03T11:06:39.116Z,610.00
2023-04-03T11:07:39.121Z,598.00
2023-04-03T11:08:39.147Z,592.00
2023-04-03T11:09:39.015Z,597.00
2023-04-03T11:10:38.989Z,614.00
2023-04-03T11:11:38.957Z,602.00
2023-04-03T11:12:39.001Z,598.00
2023-04-03T11:13:38.881Z,588.00
2023-04-03T11:14:38.846Z,575.00
2023-04-03T11:15:39.072Z,561.00
2023-04-03T11:16:50.970Z,543.00
2023-04-03T11:17:39.786Z,537.00
2023-04-03T11:18:38.757Z,529.00
2023-04-03T11:19:38.732Z,517.00
2023-04-03T11:20:38.689Z,514.00
2023-04-03T11:21:38.646Z,513.00
2023-04-03T11:22:38.634Z,521.00
2023-04-03T11:23:48.973Z,517.00
2023-04-03T11:24:39.553Z,517.00
2023-04-03T11:25:38.787Z,517.00
2023-04-03T11:26:38.488Z,521.00
2023-04-03T11:27:38.467Z,528.00
2023-04-03T11:28:38.464Z,549.00
2023-04-03T11:29:38.415Z,575.00
2023-04-03T11:30:38.422Z,587.00
2023-04-03T11:31:38.381Z,594.00
2023-04-03T11:32:38.332Z,602.00
2023-04-03T11:33:38.338Z,610.00
2023-04-03T11:34:38.291Z,620.00
2023-04-03T11:35:38.452Z,624.00
2023-04-03T11:36:38.327Z,633.00
2023-04-03T11:37:38.199Z,636.00
2023-04-03T11:38:38.168Z,650.00
2023-04-03T11:39:38.143Z,659.00
2023-04-03T11:40:38.131Z,667.00
2023-04-03T11:41:38.159Z,685.00
2023-04-03T11:42:38.097Z,713.00
2023-04-03T11:43:38.037Z,727.00
2023-04-03T11:44:38.109Z,764.00
2023-04-03T11:45:38.330Z,788.00
2023-04-03T11:46:38.038Z,796.00
2023-04-03T11:47:37.929Z,804.00
2023-04-03T11:48:37.865Z,820.00
2023-04-03T11:49:37.839Z,823.00
2023-04-03T11:50:37.810Z,836.00
2023-04-03T11:51:37.771Z,827.00
2023-04-03T11:52:37.737Z,847.00
2023-04-03T11:53:37.702Z,858.00
2023-04-03T11:54:44.464Z,863.00
2023-04-03T11:55:38.797Z,864.00
2023-04-03T11:56:37.646Z,872.00
2023-04-03T11:57:37.578Z,886.00
2023-04-03T11:58:37.636Z,892.00
2023-04-03T11:59:37.540Z,852.00
2023-04-03T12:00:37.576Z,817.00
2023-04-03T12:01:37.492Z,788.00
2023-04-03T12:02:47.578Z,748.00
2023-04-03T12:03:38.420Z,746.00
2023-04-03T12:04:37.368Z,717.00
2023-04-03T12:05:37.402Z,683.00
2023-04-03T12:06:37.283Z,662.00
2023-04-03T12:07:37.251Z,658.00
2023-04-03T12:08:37.237Z,655.00
2023-04-03T12:09:37.188Z,633.00
2023-04-03T12:10:37.158Z,618.00
2023-04-03T12:11:37.120Z,615.00
2023-04-03T12:12:37.100Z,611.00
2023-04-03T12:13:37.054Z,603.00